createdAt,value
2022-11-23T08:27:19.310Z,46.17
2022-11-23T08:49:17.764Z,39.77
2022-11-23T08:51:54.025Z,40.74
2022-11-23T08:54:30.684Z,41.10
2022-11-23T08:59:37.280Z,39.66
2022-11-23T09:02:14.236Z,39.29
2022-11-23T09:04:48.449Z,40.79
2022-11-23T09:07:22.356Z,42.38
2022-11-23T09:09:56.715Z,44.49
2022-11-23T09:12:30.309Z,46.70
2022-11-23T09:15:03.572Z,47.81
2022-11-23T09:17:37.769Z,50.37
2022-11-23T09:20:14.331Z,51.94
2022-11-23T09:22:54.324Z,52.83
2022-11-23T09:25:28.123Z,54.91
2022-11-23T09:28:04.646Z,55.67
2022-11-23T09:30:38.254Z,57.11
2022-11-23T09:33:12.492Z,57.29
2022-11-23T09:35:46.362Z,57.97
2022-11-23T09:38:25.674Z,58.46
2022-11-23T09:41:32.856Z,58.58
2022-11-23T09:44:14.253Z,59.13
2022-11-23T09:47:06.272Z,60.67
2022-11-23T09:49:53.276Z,60.64
2022-11-23T09:52:28.318Z,56.57
2022-11-23T09:55:07.234Z,56.09
2022-11-23T09:57:43.924Z,56.70
2022-11-23T10:00:25.506Z,57.31
2022-11-23T10:02:59.309Z,57.95
2022-11-23T10:05:40.917Z,60.11
2022-11-23T10:08:27.503Z,59.29
2022-11-23T10:11:14.109Z,60.48
2022-11-23T10:14:00.972Z,60.38
2022-11-23T10:16:50.934Z,63.59
2022-11-23T10:19:50.625Z,58.36
2022-11-23T10:22:32.548Z,55.29
2022-11-23T10:25:18.927Z,56.11
2022-11-23T10:27:58.606Z,57.08
2022-11-23T12:00:36.537Z,61.27
2022-11-23T12:03:27.296Z,58.89
2022-11-23T12:06:10.124Z,56.51
2022-11-23T12:08:56.969Z,57.25
2022-11-23T12:11:30.748Z,59.49
2022-11-23T12:14:08.018Z,60.39
2022-11-23T12:17:24.747Z,62.31
2022-11-23T12:20:01.570Z,69.44
2022-11-23T12:22:53.580Z,57.95
2022-11-23T12:25:37.573Z,55.50
2022-11-23T12:28:45.391Z,58.27
2022-11-23T12:31:39.580Z,60.75
2022-11-23T12:34:30.057Z,62.40
2022-11-23T12:37:32.999Z,61.79
2022-11-23T12:40:55.317Z,56.19
2022-11-23T12:43:40.950Z,56.75
2022-11-23T12:46:29.486Z,60.27
2022-11-23T12:49:22.325Z,60.93
2022-11-23T12:52:11.645Z,63.13
2022-11-23T12:55:00.809Z,63.49
2022-11-23T12:57:42.168Z,61.39
2022-11-23T13:00:22.718Z,56.34
2022-11-23T13:03:56.258Z,54.18
2022-11-23T13:07:31.443Z,56.72
2022-11-23T13:10:25.717Z,57.19
2022-11-23T13:13:23.636Z,58.06
2022-11-23T13:16:23.601Z,62.04
2022-11-23T13:19:18.049Z,65.11
2022-11-23T13:21:51.851Z,64.77
2022-11-23T13:24:33.627Z,58.10
2022-11-23T13:27:55.384Z,55.44
2022-11-23T13:30:59.326Z,55.98
2022-11-23T13:33:41.628Z,58.05
2022-11-23T13:40:22.439Z,64.86
2022-11-23T13:42:58.830Z,59.91
2022-11-23T13:45:37.829Z,56.48
2022-11-23T13:48:55.054Z,56.05
2022-11-23T13:51:27.100Z,57.56
2022-11-23T13:54:08.041Z,60.04
2022-11-23T13:56:44.062Z,60.77
2022-11-23T13:59:36.345Z,63.73
2022-11-23T14:02:33.310Z,66.31
2022-11-23T14:05:59.974Z,63.01
2022-11-23T14:08:38.360Z,57.90
2022-11-23T14:11:22.386Z,55.03
2022-11-23T14:14:02.862Z,56.11
2022-11-23T14:17:09.629Z,56.63
2022-11-23T14:20:11.630Z,59.73
2022-11-23T14:23:08.606Z,61.69
2022-11-23T14:26:00.097Z,69.20
2022-11-23T14:28:53.902Z,64.40
2022-11-23T14:31:47.718Z,56.89
2022-11-23T14:34:35.606Z,55.05
2022-11-23T14:37:22.067Z,57.12
2022-11-23T14:40:21.896Z,60.05
2022-11-23T14:42:59.178Z,61.09
2022-11-23T14:45:36.643Z,61.85
2022-11-23T14:48:30.793Z,65.42
2022-11-23T14:51:07.877Z,64.52
2022-11-23T14:53:49.186Z,59.87
2022-11-23T14:56:34.530Z,55.77
2022-11-23T14:59:19.647Z,55.74
2022-11-23T15:01:55.745Z,58.81
2022-11-23T15:04:35.217Z,60.53
2022-11-23T15:07:17.576Z,60.86
2022-11-23T15:10:03.800Z,65.33
2022-11-23T15:12:48.200Z,66.37
2022-11-23T15:15:26.786Z,59.54
2022-11-23T15:18:02.593Z,56.21
2022-11-23T15:20:43.303Z,57.86
2022-11-23T15:23:24.948Z,59.33
2022-11-23T15:26:01.070Z,61.29
2022-11-23T15:28:38.045Z,66.51
2022-11-23T15:31:32.661Z,63.83
2022-11-23T15:34:17.324Z,64.89
2022-11-23T15:36:51.706Z,56.86
2022-11-23T15:39:27.675Z,54.72
2022-11-23T15:42:01.167Z,55.86
2022-11-23T15:44:39.665Z,57.29
2022-11-23T15:47:18.682Z,60.30
2022-11-23T15:49:52.272Z,63.17
2022-11-23T15:52:29.635Z,66.43
2022-11-23T15:55:10.047Z,62.46
2022-11-23T15:57:45.664Z,56.66
2022-11-23T16:00:28.114Z,56.39
2022-11-23T16:03:52.736Z,58.82
2022-11-23T16:06:38.965Z,61.02
2022-11-23T16:09:57.387Z,64.70
2022-11-23T16:12:35.726Z,68.63
2022-11-23T16:15:41.813Z,63.63
2022-11-23T16:18:31.765Z,55.92
2022-11-23T16:21:07.263Z,53.32
2022-11-23T16:23:50.994Z,55.55
2022-11-23T16:26:33.354Z,58.21
2022-11-23T16:29:20.788Z,59.27
2022-11-23T16:32:01.073Z,61.08
2022-11-23T16:34:36.498Z,65.09
2022-11-23T16:37:09.579Z,66.68
2022-11-23T16:39:42.563Z,60.76
2022-11-23T16:42:18.263Z,56.79
2022-11-23T16:44:51.061Z,56.83
2022-11-23T16:47:30.934Z,57.27
2022-11-23T16:50:05.371Z,59.55
2022-11-23T16:52:44.565Z,61.60
2022-11-23T16:55:18.371Z,66.47
2022-11-23T16:57:52.674Z,67.06
2022-11-23T17:00:29.343Z,58.95
2022-11-23T17:03:03.213Z,56.48
2022-11-23T17:05:36.574Z,57.27
2022-11-23T17:08:10.325Z,58.72
2022-11-23T17:10:44.141Z,60.13
2022-11-23T17:13:25.044Z,60.77
2022-11-23T17:15:59.106Z,65.16
2022-11-23T17:18:32.346Z,70.52
2022-11-23T17:21:05.647Z,66.44
2022-11-23T17:23:43.175Z,62.44
2022-11-23T17:26:38.067Z,60.91
2022-11-23T17:29:19.905Z,57.36
2022-11-23T17:31:54.157Z,54.92
2022-11-23T17:34:27.531Z,57.24
2022-11-23T17:37:01.049Z,58.96
2022-11-23T17:39:35.589Z,60.10
2022-11-23T17:42:10.950Z,62.09
2022-11-23T17:44:43.910Z,67.48
2022-11-23T17:47:31.568Z,66.64
2022-11-23T17:50:06.588Z,63.27
2022-11-23T17:52:42.385Z,57.44
2022-11-23T17:55:17.016Z,55.48
2022-11-23T17:57:49.797Z,56.57
2022-11-23T18:00:25.301Z,58.03
2022-11-23T18:02:58.299Z,59.14
2022-11-23T18:05:31.926Z,63.88
2022-11-23T18:08:05.414Z,66.56
2022-11-23T18:10:38.506Z,63.97
2022-11-23T18:13:11.380Z,61.43
2022-11-23T18:15:44.952Z,57.87
2022-11-23T18:18:18.688Z,57.33
2022-11-23T18:20:51.906Z,57.85
2022-11-23T18:23:25.395Z,59.49
2022-11-23T18:26:06.379Z,61.44
2022-11-23T18:28:39.648Z,65.37
2022-11-23T18:31:14.015Z,66.40
2022-11-23T18:33:47.510Z,64.50
2022-11-23T18:36:21.155Z,59.48
2022-11-23T18:38:54.051Z,56.49
2022-11-23T18:41:27.430Z,56.64
2022-11-23T18:44:01.080Z,59.10
2022-11-23T18:46:34.140Z,61.38
2022-11-23T18:49:07.510Z,63.53
2022-11-23T18:51:40.638Z,65.82
2022-11-23T18:54:14.636Z,66.41
2022-11-23T18:56:48.463Z,62.65
2022-11-23T19:02:16.051Z,57.22
2022-11-23T19:04:49.521Z,62.34
2022-11-23T19:07:27.253Z,63.11
2022-11-23T19:10:00.719Z,61.86
2022-11-23T19:12:35.028Z,59.31
2022-11-23T19:15:10.580Z,56.99
2022-11-23T19:17:44.327Z,57.50
2022-11-23T19:20:20.788Z,58.86
2022-11-23T19:22:55.572Z,60.92
2022-11-23T19:25:30.013Z,64.70
2022-11-23T19:28:04.757Z,69.69
2022-11-23T19:30:39.159Z,65.71
2022-11-23T19:33:12.166Z,65.30
2022-11-23T19:35:44.821Z,63.51
2022-11-23T19:38:18.882Z,57.61
2022-11-23T19:40:59.300Z,54.48
2022-11-23T19:43:34.518Z,55.78
2022-11-23T19:46:12.264Z,57.66
2022-11-23T19:48:48.170Z,59.52
2022-11-23T19:51:23.970Z,60.56
2022-11-23T19:54:00.535Z,64.64
2022-11-23T19:56:34.488Z,65.79
2022-11-23T19:59:09.958Z,65.39
2022-11-23T20:01:43.261Z,62.62
2022-11-23T20:04:16.736Z,60.17
2022-11-23T20:06:49.921Z,55.38
2022-11-23T20:09:24.704Z,54.39
2022-11-23T20:11:58.385Z,55.03
2022-11-23T20:14:32.001Z,56.23
2022-11-23T20:17:05.497Z,58.41
2022-11-23T20:19:39.665Z,63.89
2022-11-23T20:22:13.057Z,64.57
2022-11-23T20:24:46.436Z,62.63
2022-11-23T20:27:19.250Z,61.89
2022-11-23T20:29:52.393Z,58.15
2022-11-23T20:32:25.523Z,56.21
2022-11-23T20:34:58.572Z,58.01
2022-11-23T20:37:33.609Z,60.91
2022-11-23T20:40:08.060Z,64.58
2022-11-23T20:42:41.256Z,68.50
2022-11-23T20:45:15.383Z,62.75
2022-11-23T20:47:53.661Z,61.14
2022-11-23T20:50:28.283Z,56.49
2022-11-23T20:53:06.538Z,55.53
2022-11-23T20:55:40.303Z,57.31
2022-11-23T20:58:13.209Z,60.48
2022-11-23T21:00:51.412Z,63.97
2022-11-23T21:03:24.940Z,67.85
2022-11-23T21:05:58.643Z,66.92
2022-11-23T21:08:34.646Z,60.29
2022-11-23T21:11:33.120Z,55.54
2022-11-23T21:14:13.888Z,55.30
2022-11-23T21:16:53.582Z,57.92
2022-11-23T21:19:30.359Z,58.82
2022-11-23T21:22:06.779Z,62.23
2022-11-23T21:24:40.256Z,67.94
2022-11-23T21:27:17.479Z,64.83
2022-11-23T21:29:51.858Z,61.51
2022-11-23T21:32:25.163Z,57.31
2022-11-23T21:34:58.265Z,56.34
2022-11-23T21:37:31.321Z,57.37
2022-11-23T21:40:05.274Z,59.61
2022-11-23T21:42:38.337Z,60.97
2022-11-23T21:45:14.402Z,63.95
2022-11-23T21:47:47.251Z,67.93
2022-11-23T21:50:20.851Z,62.41
2022-11-23T21:52:53.873Z,61.70
2022-11-23T21:55:27.530Z,58.08
2022-11-23T21:58:00.568Z,55.13
2022-11-23T22:00:34.126Z,55.57
2022-11-23T22:03:08.071Z,57.47
2022-11-23T22:05:41.331Z,59.87
2022-11-23T22:08:28.686Z,61.41
2022-11-23T22:11:10.697Z,66.88
2022-11-23T22:13:45.897Z,65.03
2022-11-23T22:16:22.731Z,64.25
2022-11-23T22:18:57.081Z,60.91
2022-11-23T22:21:33.940Z,56.13
2022-11-23T22:24:12.081Z,52.87
2022-11-23T22:26:45.826Z,53.56
2022-11-23T22:29:19.544Z,57.11
2022-11-23T22:31:52.822Z,59.47
2022-11-23T22:34:27.236Z,60.44
2022-11-23T22:37:00.229Z,66.64
2022-11-23T22:39:33.537Z,66.75
2022-11-23T22:42:07.519Z,61.80
2022-11-23T22:44:41.243Z,56.46
2022-11-23T22:47:14.679Z,54.28
2022-11-23T22:49:48.516Z,54.75
2022-11-23T22:52:21.966Z,56.60
2022-11-23T22:54:55.340Z,59.54
2022-11-23T22:57:28.432Z,66.02
2022-11-23T23:00:02.331Z,65.48
2022-11-23T23:02:36.647Z,61.47
2022-11-23T23:05:11.173Z,55.91
2022-11-23T23:07:44.531Z,56.31
2022-11-23T23:10:18.422Z,58.22
2022-11-23T23:12:54.595Z,61.60
2022-11-23T23:15:28.389Z,66.90
2022-11-23T23:18:01.438Z,65.37
2022-11-23T23:20:35.768Z,62.50
2022-11-23T23:23:10.255Z,57.63
2022-11-23T23:25:44.148Z,54.25
2022-11-23T23:28:17.231Z,54.76
2022-11-23T23:30:50.686Z,57.22
2022-11-23T23:33:24.318Z,59.29
2022-11-23T23:35:57.677Z,59.14
2022-11-23T23:38:33.279Z,59.72
2022-11-23T23:41:08.188Z,59.80
2022-11-23T23:43:42.223Z,61.58
2022-11-23T23:46:16.974Z,68.59
2022-11-23T23:48:50.045Z,69.66
2022-11-23T23:51:25.331Z,65.58
2022-11-23T23:54:00.401Z,63.82
2022-11-23T23:56:34.232Z,61.91
2022-11-23T23:59:07.505Z,55.83
